GIA656 WIII-WAJJ
Flight info
| Callsign | GIA656 |
|---|---|
| Flight time | 4h 41m |
| Altitude | 35000 |
| Route | CA T5 HEREN/N0464F370 T5 LAVAR |
| Aircraft | B38M/M-SDE1FGHILORVWXY/HB1 |
Departure
| Time | 2026-05-05 13:23 |
|---|---|
| Airport | Soekarno-Hatta International Airport (WIII) |
Arrival
| Time | 2026-05-05 18:04 |
|---|---|
| Airport | Dortheys Hiyo Eluay International Airport (WAJJ) |
| Time | Latitude | Longitude | Altitude | Speed | Heading |
|---|---|---|---|---|---|
| 2026-05-05 12:41 | -6.11560 | 106.66917 | 38 ft | 0 kts | 166° |
| 2026-05-05 13:08 | -6.11548 | 106.66914 | 38 ft | 4 kts | 163° |
| 2026-05-05 13:08 | -6.11522 | 106.66905 | 37 ft | 4 kts | 156° |
| 2026-05-05 13:08 | -6.11498 | 106.66893 | 38 ft | 4 kts | 158° |
| 2026-05-05 13:08 | -6.11476 | 106.66889 | 38 ft | 4 kts | 213° |
| 2026-05-05 13:09 | -6.11473 | 106.66892 | 39 ft | 2 kts | 248° |
| 2026-05-05 13:12 | -6.11473 | 106.66891 | 40 ft | 1 kts | 248° |
| 2026-05-05 13:13 | -6.11479 | 106.66877 | 40 ft | 5 kts | 248° |
| 2026-05-05 13:13 | -6.11503 | 106.66815 | 40 ft | 15 kts | 249° |
| 2026-05-05 13:13 | -6.11551 | 106.66695 | 40 ft | 21 kts | 248° |
| 2026-05-05 13:13 | -6.11606 | 106.66557 | 40 ft | 22 kts | 248° |
| 2026-05-05 13:14 | -6.11646 | 106.66451 | 40 ft | 13 kts | 261° |
| 2026-05-05 13:14 | -6.11588 | 106.66390 | 40 ft | 14 kts | 339° |
| 2026-05-05 13:14 | -6.11494 | 106.66353 | 38 ft | 15 kts | 339° |
| 2026-05-05 13:14 | -6.11392 | 106.66312 | 41 ft | 14 kts | 338° |
| 2026-05-05 13:15 | -6.11351 | 106.66251 | 41 ft | 12 kts | 251° |
| 2026-05-05 13:15 | -6.11384 | 106.66168 | 41 ft | 14 kts | 248° |
| 2026-05-05 13:15 | -6.11426 | 106.66064 | 41 ft | 19 kts | 248° |
| 2026-05-05 13:15 | -6.11484 | 106.65918 | 38 ft | 26 kts | 248° |
| 2026-05-05 13:16 | -6.11556 | 106.65738 | 38 ft | 29 kts | 248° |
| 2026-05-05 13:16 | -6.11631 | 106.65554 | 40 ft | 29 kts | 248° |
| 2026-05-05 13:16 | -6.11705 | 106.65364 | 40 ft | 29 kts | 248° |
| 2026-05-05 13:16 | -6.11782 | 106.65172 | 41 ft | 30 kts | 248° |
| 2026-05-05 13:17 | -6.11853 | 106.64993 | 42 ft | 23 kts | 248° |
| 2026-05-05 13:17 | -6.11908 | 106.64856 | 41 ft | 20 kts | 248° |
| 2026-05-05 13:17 | -6.11956 | 106.64734 | 41 ft | 18 kts | 248° |
| 2026-05-05 13:17 | -6.11996 | 106.64633 | 42 ft | 13 kts | 248° |
| 2026-05-05 13:18 | -6.12031 | 106.64547 | 39 ft | 14 kts | 248° |
| 2026-05-05 13:18 | -6.12070 | 106.64450 | 41 ft | 15 kts | 248° |
| 2026-05-05 13:18 | -6.12110 | 106.64347 | 41 ft | 16 kts | 248° |
| 2026-05-05 13:18 | -6.12155 | 106.64236 | 41 ft | 18 kts | 246° |
| 2026-05-05 13:19 | -6.12202 | 106.64117 | 41 ft | 19 kts | 249° |
| 2026-05-05 13:19 | -6.12244 | 106.64012 | 42 ft | 12 kts | 248° |
| 2026-05-05 13:19 | -6.12253 | 106.63927 | 42 ft | 13 kts | 297° |
| 2026-05-05 13:19 | -6.12219 | 106.63898 | 43 ft | 0 kts | 337° |
| 2026-05-05 13:20 | -6.12218 | 106.63897 | 43 ft | 1 kts | 337° |
| 2026-05-05 13:20 | -6.12177 | 106.63892 | 42 ft | 11 kts | 7° |
| 2026-05-05 13:20 | -6.12090 | 106.63941 | 43 ft | 15 kts | 34° |
| 2026-05-05 13:21 | -6.12064 | 106.63975 | 43 ft | 0 kts | 68° |
| 2026-05-05 13:21 | -6.12063 | 106.63975 | 43 ft | 0 kts | 68° |
| 2026-05-05 13:22 | -6.12063 | 106.63977 | 43 ft | 1 kts | 68° |
| 2026-05-05 13:22 | -6.11991 | 106.64159 | 43 ft | 65 kts | 68° |
| 2026-05-05 13:22 | -6.11736 | 106.64798 | 46 ft | 132 kts | 68° |
| 2026-05-05 13:22 | -6.11326 | 106.65831 | 70 ft | 181 kts | 70° |
| 2026-05-05 13:23 | -6.10867 | 106.67054 | 616 ft | 193 kts | 70° |
| 2026-05-05 13:23 | -6.10380 | 106.68309 | 1406 ft | 194 kts | 69° |
| 2026-05-05 13:23 | -6.09729 | 106.69577 | 1938 ft | 219 kts | 55° |
| 2026-05-05 13:23 | -6.08621 | 106.70746 | 2474 ft | 240 kts | 45° |
| 2026-05-05 13:24 | -6.07388 | 106.71895 | 3388 ft | 246 kts | 45° |
| 2026-05-05 13:24 | -6.06095 | 106.73106 | 4065 ft | 261 kts | 45° |
| 2026-05-05 13:24 | -6.04763 | 106.74381 | 4783 ft | 267 kts | 46° |
| 2026-05-05 13:24 | -6.03440 | 106.75672 | 5166 ft | 268 kts | 46° |
| 2026-05-05 13:25 | -6.02105 | 106.77003 | 5513 ft | 271 kts | 46° |
| 2026-05-05 13:25 | -6.00759 | 106.78339 | 6154 ft | 272 kts | 46° |
| 2026-05-05 13:25 | -5.99407 | 106.79679 | 7002 ft | 276 kts | 47° |
| 2026-05-05 13:25 | -5.98368 | 106.81280 | 7839 ft | 275 kts | 72° |
| 2026-05-05 13:26 | -5.98130 | 106.83183 | 8631 ft | 278 kts | 97° |
| 2026-05-05 13:26 | -5.98631 | 106.85062 | 9456 ft | 282 kts | 108° |
| 2026-05-05 13:26 | -5.99247 | 106.86951 | 10191 ft | 287 kts | 108° |
| 2026-05-05 13:26 | -5.99887 | 106.88882 | 10635 ft | 305 kts | 108° |
| 2026-05-05 13:27 | -6.00585 | 106.90957 | 10927 ft | 325 kts | 108° |
| 2026-05-05 13:27 | -6.01333 | 106.93158 | 11271 ft | 341 kts | 108° |
| 2026-05-05 13:27 | -6.02112 | 106.95440 | 11820 ft | 347 kts | 108° |
| 2026-05-05 13:27 | -6.02899 | 106.97742 | 12496 ft | 351 kts | 108° |
| 2026-05-05 13:28 | -6.03697 | 107.00073 | 13118 ft | 355 kts | 108° |
| 2026-05-05 13:28 | -6.04504 | 107.02431 | 13751 ft | 359 kts | 108° |
| 2026-05-05 13:28 | -6.05320 | 107.04812 | 14283 ft | 362 kts | 108° |
| 2026-05-05 13:28 | -6.06143 | 107.07214 | 14818 ft | 365 kts | 108° |
| 2026-05-05 13:29 | -6.06973 | 107.09639 | 15353 ft | 368 kts | 108° |
| 2026-05-05 13:29 | -6.07798 | 107.12050 | 15847 ft | 372 kts | 108° |
| 2026-05-05 13:29 | -6.08642 | 107.14516 | 16353 ft | 375 kts | 108° |
| 2026-05-05 13:29 | -6.09492 | 107.16999 | 16841 ft | 378 kts | 108° |
| 2026-05-05 13:30 | -6.10518 | 107.19441 | 17306 ft | 381 kts | 113° |
| 2026-05-05 13:30 | -6.11604 | 107.21879 | 17766 ft | 384 kts | 113° |
| 2026-05-05 13:30 | -6.12688 | 107.24344 | 18224 ft | 387 kts | 113° |
| 2026-05-05 13:30 | -6.13774 | 107.26832 | 18601 ft | 390 kts | 113° |
| 2026-05-05 13:31 | -6.14864 | 107.29334 | 18992 ft | 392 kts | 113° |
| 2026-05-05 13:31 | -6.15959 | 107.31849 | 19369 ft | 394 kts | 113° |
| 2026-05-05 13:31 | -6.17062 | 107.34384 | 19745 ft | 397 kts | 112° |
| 2026-05-05 13:31 | -6.18154 | 107.36895 | 20105 ft | 399 kts | 113° |
| 2026-05-05 13:32 | -6.19269 | 107.39460 | 20459 ft | 402 kts | 113° |
| 2026-05-05 13:32 | -6.20390 | 107.42037 | 20817 ft | 404 kts | 113° |
| 2026-05-05 13:32 | -6.21517 | 107.44629 | 21163 ft | 406 kts | 113° |
| 2026-05-05 13:32 | -6.22652 | 107.47240 | 21518 ft | 408 kts | 113° |
| 2026-05-05 13:33 | -6.23792 | 107.49863 | 21866 ft | 411 kts | 113° |
| 2026-05-05 13:33 | -6.24938 | 107.52501 | 22193 ft | 413 kts | 113° |
| 2026-05-05 13:33 | -6.26090 | 107.55154 | 22544 ft | 415 kts | 113° |
| 2026-05-05 13:33 | -6.27233 | 107.57784 | 22873 ft | 417 kts | 113° |
| 2026-05-05 13:34 | -6.28398 | 107.60467 | 23204 ft | 420 kts | 113° |
| 2026-05-05 13:34 | -6.29567 | 107.63158 | 23521 ft | 422 kts | 113° |
| 2026-05-05 13:34 | -6.30743 | 107.65867 | 23795 ft | 424 kts | 113° |
| 2026-05-05 13:34 | -6.31924 | 107.68589 | 24085 ft | 425 kts | 113° |
| 2026-05-05 13:35 | -6.33109 | 107.71318 | 24374 ft | 427 kts | 113° |
| 2026-05-05 13:35 | -6.34299 | 107.74060 | 24655 ft | 428 kts | 113° |
| 2026-05-05 13:35 | -6.35492 | 107.76809 | 24928 ft | 431 kts | 113° |
| 2026-05-05 13:35 | -6.36693 | 107.79578 | 25196 ft | 433 kts | 112° |
| 2026-05-05 13:36 | -6.37879 | 107.82313 | 25489 ft | 434 kts | 112° |
| 2026-05-05 13:36 | -6.39088 | 107.85101 | 25761 ft | 436 kts | 112° |
| 2026-05-05 13:36 | -6.40302 | 107.87899 | 26049 ft | 437 kts | 112° |
| 2026-05-05 13:36 | -6.41517 | 107.90703 | 26325 ft | 438 kts | 112° |
| 2026-05-05 13:37 | -6.42735 | 107.93513 | 26674 ft | 438 kts | 112° |
| 2026-05-05 13:37 | -6.43952 | 107.96320 | 27044 ft | 437 kts | 112° |
| 2026-05-05 13:37 | -6.45165 | 107.99119 | 27426 ft | 436 kts | 112° |
| 2026-05-05 13:37 | -6.46376 | 108.01912 | 27815 ft | 435 kts | 112° |
| 2026-05-05 13:38 | -6.47586 | 108.04700 | 28202 ft | 434 kts | 112° |
| 2026-05-05 13:38 | -6.48771 | 108.07432 | 28599 ft | 433 kts | 112° |
| 2026-05-05 13:38 | -6.49973 | 108.10202 | 28989 ft | 432 kts | 112° |
| 2026-05-05 13:38 | -6.51175 | 108.12973 | 29390 ft | 432 kts | 112° |
| 2026-05-05 13:39 | -6.52376 | 108.15742 | 29718 ft | 432 kts | 112° |
| 2026-05-05 13:39 | -6.53576 | 108.18510 | 30061 ft | 432 kts | 112° |
| 2026-05-05 13:39 | -6.56033 | 108.24179 | 29955 ft | 452 kts | 112° |
| 2026-05-05 13:40 | -6.58564 | 108.30022 | 30095 ft | 462 kts | 112° |
| 2026-05-05 13:40 | -6.59849 | 108.32988 | 30293 ft | 464 kts | 112° |
| 2026-05-05 13:40 | -6.61140 | 108.35969 | 30474 ft | 466 kts | 112° |
| 2026-05-05 13:41 | -6.62434 | 108.38957 | 30672 ft | 467 kts | 112° |
| 2026-05-05 13:41 | -6.63734 | 108.41959 | 30853 ft | 469 kts | 112° |
| 2026-05-05 13:41 | -6.65037 | 108.44973 | 31045 ft | 471 kts | 112° |
| 2026-05-05 13:41 | -6.66347 | 108.47997 | 31214 ft | 473 kts | 112° |
| 2026-05-05 13:42 | -6.67660 | 108.51033 | 31417 ft | 474 kts | 112° |
| 2026-05-05 13:42 | -6.68865 | 108.54111 | 31645 ft | 473 kts | 104° |
| 2026-05-05 13:42 | -6.69338 | 108.57321 | 31905 ft | 469 kts | 89° |
| 2026-05-05 13:42 | -6.69083 | 108.60588 | 32135 ft | 469 kts | 83° |
| 2026-05-05 13:43 | -6.68715 | 108.63851 | 32320 ft | 470 kts | 83° |
| 2026-05-05 13:43 | -6.68320 | 108.67120 | 32569 ft | 470 kts | 82° |
| 2026-05-05 13:43 | -6.67907 | 108.70379 | 32821 ft | 470 kts | 82° |
| 2026-05-05 13:43 | -6.67484 | 108.73640 | 33067 ft | 470 kts | 82° |
| 2026-05-05 13:44 | -6.67058 | 108.76898 | 33324 ft | 470 kts | 82° |
| 2026-05-05 13:44 | -6.66630 | 108.80155 | 33568 ft | 470 kts | 82° |
| 2026-05-05 13:44 | -6.66203 | 108.83414 | 33810 ft | 470 kts | 82° |
| 2026-05-05 13:44 | -6.65780 | 108.86630 | 34031 ft | 470 kts | 82° |
| 2026-05-05 13:45 | -6.65352 | 108.89886 | 34250 ft | 470 kts | 82° |
| 2026-05-05 13:45 | -6.64924 | 108.93142 | 34463 ft | 469 kts | 82° |
| 2026-05-05 13:45 | -6.64497 | 108.96394 | 34688 ft | 469 kts | 82° |
| 2026-05-05 13:45 | -6.64068 | 108.99647 | 34867 ft | 469 kts | 82° |
| 2026-05-05 13:46 | -6.63212 | 109.06147 | 34914 ft | 468 kts | 82° |
| 2026-05-05 13:46 | -6.62364 | 109.12580 | 34918 ft | 467 kts | 82° |
| 2026-05-05 13:47 | -6.61509 | 109.19061 | 34920 ft | 468 kts | 82° |
| 2026-05-05 13:47 | -6.60652 | 109.25544 | 34919 ft | 468 kts | 81° |
| 2026-05-05 13:48 | -6.59793 | 109.32034 | 34919 ft | 468 kts | 82° |
| 2026-05-05 13:48 | -6.58935 | 109.38516 | 34919 ft | 468 kts | 82° |
| 2026-05-05 13:49 | -6.58082 | 109.44954 | 34917 ft | 468 kts | 82° |
| 2026-05-05 13:49 | -6.57221 | 109.51441 | 34917 ft | 468 kts | 82° |
| 2026-05-05 13:50 | -6.56359 | 109.57932 | 34914 ft | 468 kts | 82° |
| 2026-05-05 13:50 | -6.55497 | 109.64420 | 34914 ft | 468 kts | 82° |
| 2026-05-05 13:51 | -6.54640 | 109.70864 | 34914 ft | 468 kts | 82° |
| 2026-05-05 13:51 | -6.53775 | 109.77351 | 34914 ft | 468 kts | 82° |
| 2026-05-05 13:52 | -6.52910 | 109.83842 | 34913 ft | 469 kts | 82° |
| 2026-05-05 13:52 | -6.52042 | 109.90349 | 34914 ft | 470 kts | 82° |
| 2026-05-05 13:53 | -6.51172 | 109.96856 | 34916 ft | 470 kts | 82° |
| 2026-05-05 13:53 | -6.50307 | 110.03325 | 34917 ft | 470 kts | 82° |
| 2026-05-05 13:54 | -6.49437 | 110.09830 | 34915 ft | 470 kts | 82° |
| 2026-05-05 13:54 | -6.48565 | 110.16337 | 34912 ft | 470 kts | 81° |
| 2026-05-05 13:55 | -6.47689 | 110.22865 | 34915 ft | 471 kts | 81° |
| 2026-05-05 13:55 | -6.46819 | 110.29348 | 34914 ft | 471 kts | 81° |
| 2026-05-05 13:56 | -6.45942 | 110.35877 | 34914 ft | 471 kts | 81° |
| 2026-05-05 13:56 | -6.45078 | 110.42406 | 34914 ft | 471 kts | 82° |
| 2026-05-05 13:57 | -6.44214 | 110.48935 | 34916 ft | 471 kts | 82° |
| 2026-05-05 13:57 | -6.43350 | 110.55470 | 34915 ft | 472 kts | 82° |
| 2026-05-05 13:58 | -6.42490 | 110.61961 | 34919 ft | 472 kts | 82° |
| 2026-05-05 13:58 | -6.41623 | 110.68495 | 34920 ft | 472 kts | 81° |
| 2026-05-05 13:59 | -6.40322 | 110.78300 | 34922 ft | 472 kts | 81° |
| 2026-05-05 14:00 | -6.39167 | 110.86990 | 34917 ft | 471 kts | 81° |
| 2026-05-05 14:00 | -6.38158 | 110.94567 | 34919 ft | 471 kts | 81° |
| 2026-05-05 14:01 | -6.37289 | 111.01085 | 34914 ft | 470 kts | 81° |
| 2026-05-05 14:01 | -6.36420 | 111.07606 | 34914 ft | 470 kts | 81° |
| 2026-05-05 14:02 | -6.35556 | 111.14121 | 34916 ft | 470 kts | 81° |
| 2026-05-05 14:02 | -6.34700 | 111.20606 | 34914 ft | 471 kts | 81° |
| 2026-05-05 14:03 | -6.33837 | 111.27138 | 34911 ft | 471 kts | 81° |
| 2026-05-05 14:03 | -6.32973 | 111.33666 | 34909 ft | 471 kts | 81° |
| 2026-05-05 14:04 | -6.32108 | 111.40197 | 34910 ft | 471 kts | 81° |
| 2026-05-05 14:04 | -6.31243 | 111.46726 | 34911 ft | 471 kts | 80° |
| 2026-05-05 14:05 | -6.30382 | 111.53216 | 34910 ft | 471 kts | 82° |
| 2026-05-05 14:05 | -6.29515 | 111.59742 | 34911 ft | 471 kts | 81° |
| 2026-05-05 14:06 | -6.28646 | 111.66273 | 34911 ft | 471 kts | 81° |
| 2026-05-05 14:06 | -6.27777 | 111.72805 | 34911 ft | 472 kts | 80° |
| 2026-05-05 14:07 | -6.26912 | 111.79299 | 34914 ft | 472 kts | 81° |
| 2026-05-05 14:07 | -6.26026 | 111.85826 | 34911 ft | 472 kts | 81° |
| 2026-05-05 14:08 | -6.25137 | 111.92360 | 34911 ft | 472 kts | 81° |
| 2026-05-05 14:08 | -6.24248 | 111.98894 | 34912 ft | 472 kts | 80° |
| 2026-05-05 14:09 | -6.23357 | 112.05431 | 34913 ft | 472 kts | 81° |
| 2026-05-05 14:09 | -6.22471 | 112.11924 | 34912 ft | 472 kts | 81° |
| 2026-05-05 14:10 | -6.21579 | 112.18455 | 34911 ft | 471 kts | 81° |
| 2026-05-05 14:10 | -6.20688 | 112.24977 | 34911 ft | 471 kts | 81° |
| 2026-05-05 14:11 | -6.19795 | 112.31505 | 34913 ft | 471 kts | 81° |
| 2026-05-05 14:11 | -6.18908 | 112.37983 | 34914 ft | 471 kts | 81° |
| 2026-05-05 14:12 | -6.18014 | 112.44510 | 34910 ft | 472 kts | 81° |
| 2026-05-05 14:12 | -6.17118 | 112.51039 | 34911 ft | 472 kts | 81° |
| 2026-05-05 14:13 | -6.16222 | 112.57572 | 34910 ft | 472 kts | 80° |
| 2026-05-05 14:13 | -6.15329 | 112.64062 | 34910 ft | 472 kts | 81° |
| 2026-05-05 14:14 | -6.14431 | 112.70593 | 34914 ft | 472 kts | 81° |
| 2026-05-05 14:14 | -6.13532 | 112.77123 | 34913 ft | 472 kts | 81° |
| 2026-05-05 14:15 | -6.12631 | 112.83661 | 34912 ft | 472 kts | 81° |
| 2026-05-05 14:15 | -6.11735 | 112.90157 | 34912 ft | 473 kts | 81° |
| 2026-05-05 14:16 | -6.10833 | 112.96695 | 34912 ft | 472 kts | 81° |
| 2026-05-05 14:16 | -6.09929 | 113.03234 | 34915 ft | 472 kts | 81° |
| 2026-05-05 14:17 | -6.09024 | 113.09773 | 34915 ft | 473 kts | 81° |
| 2026-05-05 14:17 | -6.08119 | 113.16315 | 34915 ft | 472 kts | 82° |
| 2026-05-05 14:18 | -6.07219 | 113.22807 | 34914 ft | 472 kts | 81° |
| 2026-05-05 14:18 | -6.06313 | 113.29343 | 34915 ft | 472 kts | 81° |
| 2026-05-05 14:19 | -6.05406 | 113.35877 | 34916 ft | 472 kts | 81° |
| 2026-05-05 14:19 | -6.04504 | 113.42373 | 34914 ft | 472 kts | 81° |
| 2026-05-05 14:20 | -6.03595 | 113.48906 | 34913 ft | 472 kts | 81° |
| 2026-05-05 14:20 | -6.02688 | 113.55430 | 34914 ft | 472 kts | 81° |
| 2026-05-05 14:21 | -6.01778 | 113.61959 | 34913 ft | 472 kts | 81° |
| 2026-05-05 14:21 | -6.00874 | 113.68447 | 34913 ft | 472 kts | 81° |
| 2026-05-05 14:22 | -5.99964 | 113.74971 | 34914 ft | 472 kts | 81° |
| 2026-05-05 14:22 | -5.99052 | 113.81499 | 34914 ft | 472 kts | 81° |
| 2026-05-05 14:23 | -5.98139 | 113.88027 | 34914 ft | 472 kts | 81° |
| 2026-05-05 14:23 | -5.97226 | 113.94557 | 34915 ft | 472 kts | 82° |
| 2026-05-05 14:24 | -5.96318 | 114.01044 | 34914 ft | 472 kts | 81° |
| 2026-05-05 14:24 | -5.95403 | 114.07573 | 34917 ft | 472 kts | 81° |
| 2026-05-05 14:25 | -5.94486 | 114.14104 | 34918 ft | 472 kts | 82° |
| 2026-05-05 14:25 | -5.93568 | 114.20635 | 34917 ft | 472 kts | 82° |
| 2026-05-05 14:26 | -5.92650 | 114.27163 | 34915 ft | 472 kts | 82° |
| 2026-05-05 14:26 | -5.91738 | 114.33648 | 34914 ft | 472 kts | 82° |
| 2026-05-05 14:27 | -5.90819 | 114.40175 | 34913 ft | 472 kts | 82° |
| 2026-05-05 14:27 | -5.89898 | 114.46710 | 34913 ft | 473 kts | 82° |
| 2026-05-05 14:28 | -5.88976 | 114.53245 | 34916 ft | 473 kts | 82° |
| 2026-05-05 14:28 | -5.88060 | 114.59733 | 34919 ft | 472 kts | 82° |
| 2026-05-05 14:29 | -5.87140 | 114.66242 | 34912 ft | 470 kts | 82° |
| 2026-05-05 14:29 | -5.86221 | 114.72743 | 34915 ft | 470 kts | 82° |
| 2026-05-05 14:30 | -5.85300 | 114.79247 | 34916 ft | 470 kts | 82° |
| 2026-05-05 14:30 | -5.84380 | 114.85742 | 34916 ft | 470 kts | 82° |
| 2026-05-05 14:31 | -5.83465 | 114.92199 | 34918 ft | 470 kts | 82° |
| 2026-05-05 14:31 | -5.82542 | 114.98699 | 34918 ft | 470 kts | 82° |
| 2026-05-05 14:32 | -5.81619 | 115.05202 | 34914 ft | 470 kts | 82° |
| 2026-05-05 14:32 | -5.80701 | 115.11662 | 34915 ft | 470 kts | 82° |
| 2026-05-05 14:33 | -5.79775 | 115.18167 | 34917 ft | 470 kts | 82° |
| 2026-05-05 14:33 | -5.78849 | 115.24669 | 34917 ft | 470 kts | 82° |
| 2026-05-05 14:34 | -5.77922 | 115.31173 | 34916 ft | 470 kts | 82° |
| 2026-05-05 14:34 | -5.76994 | 115.37680 | 34916 ft | 471 kts | 82° |
| 2026-05-05 14:35 | -5.76072 | 115.44143 | 34916 ft | 471 kts | 82° |
| 2026-05-05 14:35 | -5.75143 | 115.50646 | 34917 ft | 471 kts | 82° |
| 2026-05-05 14:36 | -5.74212 | 115.57155 | 34913 ft | 471 kts | 82° |
| 2026-05-05 14:36 | -5.73281 | 115.63664 | 34913 ft | 471 kts | 82° |
| 2026-05-05 14:37 | -5.72348 | 115.70175 | 34918 ft | 471 kts | 82° |
| 2026-05-05 14:37 | -5.71422 | 115.76638 | 34916 ft | 471 kts | 82° |
| 2026-05-05 14:38 | -5.70488 | 115.83152 | 34916 ft | 471 kts | 82° |
| 2026-05-05 14:38 | -5.69553 | 115.89661 | 34917 ft | 471 kts | 82° |
| 2026-05-05 14:39 | -5.68618 | 115.96171 | 34918 ft | 471 kts | 82° |
| 2026-05-05 14:39 | -5.67688 | 116.02641 | 34916 ft | 471 kts | 82° |
| 2026-05-05 14:40 | -5.66751 | 116.09147 | 34917 ft | 471 kts | 82° |
| 2026-05-05 14:40 | -5.65814 | 116.15657 | 34919 ft | 471 kts | 82° |
| 2026-05-05 14:41 | -5.64876 | 116.22166 | 34918 ft | 471 kts | 82° |
| 2026-05-05 14:41 | -5.63937 | 116.28674 | 34918 ft | 471 kts | 82° |
| 2026-05-05 14:42 | -5.63003 | 116.35139 | 34918 ft | 471 kts | 82° |
| 2026-05-05 14:42 | -5.62063 | 116.41647 | 34916 ft | 471 kts | 82° |
| 2026-05-05 14:43 | -5.61121 | 116.48161 | 34916 ft | 471 kts | 82° |
| 2026-05-05 14:43 | -5.60179 | 116.54671 | 34915 ft | 471 kts | 82° |
| 2026-05-05 14:44 | -5.59243 | 116.61133 | 34917 ft | 471 kts | 82° |
| 2026-05-05 14:44 | -5.58300 | 116.67641 | 34915 ft | 471 kts | 82° |
| 2026-05-05 14:45 | -5.57357 | 116.74137 | 34918 ft | 471 kts | 82° |
| 2026-05-05 14:45 | -5.56413 | 116.80641 | 34920 ft | 471 kts | 82° |
| 2026-05-05 14:46 | -5.55468 | 116.87148 | 34918 ft | 471 kts | 82° |
| 2026-05-05 14:46 | -5.54528 | 116.93611 | 34916 ft | 471 kts | 82° |
| 2026-05-05 14:47 | -5.53582 | 117.00117 | 34916 ft | 471 kts | 82° |
| 2026-05-05 14:47 | -5.52603 | 117.06608 | 34913 ft | 471 kts | 78° |
| 2026-05-05 14:48 | -5.51295 | 117.13049 | 34921 ft | 471 kts | 79° |
| 2026-05-05 14:48 | -5.50033 | 117.19452 | 34925 ft | 471 kts | 79° |
| 2026-05-05 14:49 | -5.48768 | 117.25892 | 34914 ft | 470 kts | 79° |
| 2026-05-05 14:49 | -5.47504 | 117.32328 | 34913 ft | 470 kts | 79° |
| 2026-05-05 14:50 | -5.46238 | 117.38766 | 34916 ft | 470 kts | 79° |
| 2026-05-05 14:50 | -5.44980 | 117.45160 | 34918 ft | 470 kts | 79° |
| 2026-05-05 14:51 | -5.43713 | 117.51596 | 34918 ft | 469 kts | 79° |
| 2026-05-05 14:51 | -5.42450 | 117.58013 | 34917 ft | 469 kts | 79° |
| 2026-05-05 14:52 | -5.41185 | 117.64431 | 34913 ft | 469 kts | 79° |
| 2026-05-05 14:52 | -5.39920 | 117.70847 | 34913 ft | 469 kts | 79° |
| 2026-05-05 14:53 | -5.38663 | 117.77214 | 34918 ft | 467 kts | 79° |
| 2026-05-05 14:53 | -5.37401 | 117.83607 | 34915 ft | 467 kts | 79° |
| 2026-05-05 14:54 | -5.36138 | 117.90002 | 34915 ft | 467 kts | 79° |
| 2026-05-05 14:54 | -5.34875 | 117.96392 | 34914 ft | 467 kts | 79° |
| 2026-05-05 14:55 | -5.33621 | 118.02735 | 34914 ft | 467 kts | 79° |
| 2026-05-05 14:55 | -5.32357 | 118.09125 | 34917 ft | 466 kts | 79° |
| 2026-05-05 14:56 | -5.31094 | 118.15503 | 34919 ft | 466 kts | 79° |
| 2026-05-05 14:56 | -5.29832 | 118.21875 | 34920 ft | 466 kts | 79° |
| 2026-05-05 14:57 | -5.28569 | 118.28245 | 34917 ft | 466 kts | 79° |
| 2026-05-05 14:57 | -5.27314 | 118.34575 | 34913 ft | 466 kts | 79° |
| 2026-05-05 14:58 | -5.26050 | 118.40949 | 34912 ft | 465 kts | 79° |
| 2026-05-05 14:58 | -5.24789 | 118.47301 | 34913 ft | 465 kts | 79° |
| 2026-05-05 14:59 | -5.23525 | 118.53661 | 34913 ft | 465 kts | 80° |
| 2026-05-05 14:59 | -5.22270 | 118.59976 | 34911 ft | 465 kts | 79° |
| 2026-05-05 15:00 | -5.21213 | 118.65296 | 34909 ft | 464 kts | 80° |
| 2026-05-05 15:00 | -5.19745 | 118.72674 | 34907 ft | 463 kts | 79° |
| 2026-05-05 15:01 | -5.18483 | 118.79013 | 34906 ft | 463 kts | 79° |
| 2026-05-05 15:01 | -5.17222 | 118.85345 | 34902 ft | 463 kts | 79° |
| 2026-05-05 15:02 | -5.15968 | 118.91639 | 34899 ft | 464 kts | 79° |
| 2026-05-05 15:02 | -5.14704 | 118.97979 | 34901 ft | 463 kts | 79° |
| 2026-05-05 15:03 | -5.13440 | 119.04315 | 34902 ft | 463 kts | 79° |
| 2026-05-05 15:03 | -5.12175 | 119.10652 | 34903 ft | 463 kts | 79° |
| 2026-05-05 15:04 | -5.11123 | 119.15916 | 34901 ft | 463 kts | 80° |
| 2026-05-05 15:04 | -5.09654 | 119.23277 | 34897 ft | 463 kts | 79° |
| 2026-05-05 15:05 | -5.07748 | 119.32808 | 34895 ft | 466 kts | 79° |
| 2026-05-05 15:06 | -5.06689 | 119.38100 | 34891 ft | 466 kts | 79° |
| 2026-05-05 15:06 | -5.05416 | 119.44463 | 34887 ft | 466 kts | 79° |
| 2026-05-05 15:07 | -5.04141 | 119.50830 | 34883 ft | 466 kts | 79° |
| 2026-05-05 15:07 | -5.03133 | 119.57195 | 34888 ft | 466 kts | 82° |
| 2026-05-05 15:08 | -5.02131 | 119.63614 | 34886 ft | 465 kts | 82° |
| 2026-05-05 15:08 | -5.01124 | 119.70024 | 34883 ft | 465 kts | 82° |
| 2026-05-05 15:09 | -5.00116 | 119.76435 | 34919 ft | 466 kts | 82° |
| 2026-05-05 15:09 | -4.99106 | 119.82849 | 34932 ft | 466 kts | 82° |
| 2026-05-05 15:10 | -4.98105 | 119.89204 | 34949 ft | 463 kts | 81° |
| 2026-05-05 15:10 | -4.97101 | 119.95578 | 34955 ft | 463 kts | 82° |
| 2026-05-05 15:11 | -4.96094 | 120.01957 | 34953 ft | 463 kts | 82° |
| 2026-05-05 15:11 | -4.95089 | 120.08330 | 34951 ft | 463 kts | 82° |
| 2026-05-05 15:12 | -4.94089 | 120.14666 | 34947 ft | 464 kts | 82° |
| 2026-05-05 15:12 | -4.93080 | 120.21047 | 34936 ft | 463 kts | 81° |
| 2026-05-05 15:13 | -4.92073 | 120.27419 | 34938 ft | 463 kts | 81° |
| 2026-05-05 15:13 | -4.91064 | 120.33794 | 34922 ft | 463 kts | 82° |
| 2026-05-05 15:14 | -4.90055 | 120.40167 | 34921 ft | 463 kts | 82° |
| 2026-05-05 15:14 | -4.89052 | 120.46505 | 34923 ft | 463 kts | 81° |
| 2026-05-05 15:15 | -4.88041 | 120.52885 | 34919 ft | 463 kts | 81° |
| 2026-05-05 15:15 | -4.87028 | 120.59268 | 34925 ft | 463 kts | 81° |
| 2026-05-05 15:16 | -4.86016 | 120.65649 | 34923 ft | 463 kts | 81° |
| 2026-05-05 15:16 | -4.85010 | 120.71985 | 34924 ft | 463 kts | 82° |
| 2026-05-05 15:17 | -4.83995 | 120.78371 | 34923 ft | 464 kts | 82° |
| 2026-05-05 15:17 | -4.82979 | 120.84757 | 34924 ft | 464 kts | 81° |
| 2026-05-05 15:18 | -4.81964 | 120.91141 | 34930 ft | 464 kts | 81° |
| 2026-05-05 15:18 | -4.80954 | 120.97483 | 34926 ft | 465 kts | 82° |
| 2026-05-05 15:19 | -4.79933 | 121.03892 | 34923 ft | 466 kts | 82° |
| 2026-05-05 15:19 | -4.78911 | 121.10307 | 34923 ft | 466 kts | 82° |
| 2026-05-05 15:20 | -4.77888 | 121.16724 | 34926 ft | 466 kts | 82° |
| 2026-05-05 15:20 | -4.76873 | 121.23082 | 34922 ft | 466 kts | 81° |
| 2026-05-05 15:21 | -4.75848 | 121.29505 | 34920 ft | 467 kts | 82° |
| 2026-05-05 15:21 | -4.74820 | 121.35936 | 34911 ft | 467 kts | 82° |
| 2026-05-05 15:22 | -4.73791 | 121.42374 | 34918 ft | 467 kts | 82° |
| 2026-05-05 15:22 | -4.72762 | 121.48805 | 34911 ft | 467 kts | 81° |
| 2026-05-05 15:23 | -4.71739 | 121.55198 | 34920 ft | 467 kts | 81° |
| 2026-05-05 15:23 | -4.70709 | 121.61631 | 34918 ft | 467 kts | 81° |
| 2026-05-05 15:24 | -4.69679 | 121.68058 | 34929 ft | 467 kts | 81° |
| 2026-05-05 15:24 | -4.68647 | 121.74490 | 34929 ft | 467 kts | 81° |
| 2026-05-05 15:25 | -4.67623 | 121.80875 | 34931 ft | 467 kts | 81° |
| 2026-05-05 15:25 | -4.66591 | 121.87307 | 34932 ft | 467 kts | 81° |
| 2026-05-05 15:26 | -4.65558 | 121.93735 | 34936 ft | 467 kts | 81° |
| 2026-05-05 15:26 | -4.64529 | 122.00164 | 34931 ft | 467 kts | 81° |
| 2026-05-05 15:27 | -4.63523 | 122.06551 | 34934 ft | 467 kts | 81° |
| 2026-05-05 15:27 | -4.62510 | 122.12971 | 34924 ft | 465 kts | 81° |
| 2026-05-05 15:28 | -4.61499 | 122.19372 | 34925 ft | 465 kts | 81° |
| 2026-05-05 15:28 | -4.60493 | 122.25739 | 34918 ft | 465 kts | 81° |
| 2026-05-05 15:29 | -4.59480 | 122.32145 | 34924 ft | 465 kts | 81° |
| 2026-05-05 15:29 | -4.58475 | 122.38498 | 34923 ft | 464 kts | 81° |
| 2026-05-05 15:30 | -4.57466 | 122.44877 | 34921 ft | 464 kts | 81° |
| 2026-05-05 15:30 | -4.56454 | 122.51262 | 34922 ft | 463 kts | 81° |
| 2026-05-05 15:31 | -4.55444 | 122.57637 | 34916 ft | 463 kts | 81° |
| 2026-05-05 15:31 | -4.54440 | 122.63972 | 34926 ft | 463 kts | 81° |
| 2026-05-05 15:32 | -4.53430 | 122.70336 | 34927 ft | 462 kts | 81° |
| 2026-05-05 15:32 | -4.52420 | 122.76699 | 34930 ft | 462 kts | 81° |
| 2026-05-05 15:33 | -4.51411 | 122.83053 | 34931 ft | 462 kts | 81° |
| 2026-05-05 15:33 | -4.50400 | 122.89414 | 34929 ft | 462 kts | 81° |
| 2026-05-05 15:34 | -4.49400 | 122.95698 | 34927 ft | 458 kts | 81° |
| 2026-05-05 15:34 | -4.48397 | 123.02003 | 34922 ft | 459 kts | 81° |
| 2026-05-05 15:35 | -4.47393 | 123.08312 | 34915 ft | 459 kts | 81° |
| 2026-05-05 15:35 | -4.46388 | 123.14621 | 34916 ft | 458 kts | 81° |
| 2026-05-05 15:36 | -4.45390 | 123.20878 | 34907 ft | 458 kts | 81° |
| 2026-05-05 15:36 | -4.44386 | 123.27175 | 34905 ft | 458 kts | 81° |
| 2026-05-05 15:37 | -4.43382 | 123.33473 | 34904 ft | 457 kts | 81° |
| 2026-05-05 15:37 | -4.42376 | 123.39771 | 34902 ft | 457 kts | 81° |
| 2026-05-05 15:38 | -4.41990 | 123.46111 | 34902 ft | 457 kts | 89° |
| 2026-05-05 15:38 | -4.41861 | 123.52442 | 34916 ft | 458 kts | 89° |
| 2026-05-05 15:39 | -4.41742 | 123.58813 | 34917 ft | 458 kts | 89° |
| 2026-05-05 15:39 | -4.41624 | 123.65184 | 34904 ft | 457 kts | 89° |
| 2026-05-05 15:40 | -4.41505 | 123.71551 | 34888 ft | 458 kts | 89° |
| 2026-05-05 15:40 | -4.41387 | 123.77897 | 34898 ft | 458 kts | 89° |
| 2026-05-05 15:41 | -4.41267 | 123.84291 | 34900 ft | 458 kts | 89° |
| 2026-05-05 15:41 | -4.41146 | 123.90682 | 34911 ft | 458 kts | 89° |
| 2026-05-05 15:42 | -4.41025 | 123.97060 | 34902 ft | 459 kts | 89° |
| 2026-05-05 15:42 | -4.40903 | 124.03432 | 34894 ft | 462 kts | 89° |
| 2026-05-05 15:43 | -4.40780 | 124.09854 | 34895 ft | 461 kts | 89° |
| 2026-05-05 15:43 | -4.40657 | 124.16274 | 34893 ft | 460 kts | 89° |
| 2026-05-05 15:44 | -4.40533 | 124.22692 | 34899 ft | 460 kts | 88° |
| 2026-05-05 15:44 | -4.40408 | 124.29127 | 34904 ft | 462 kts | 88° |
| 2026-05-05 15:45 | -4.40284 | 124.35521 | 34898 ft | 462 kts | 88° |
| 2026-05-05 15:45 | -4.40158 | 124.41954 | 34894 ft | 462 kts | 88° |
| 2026-05-05 15:46 | -4.40031 | 124.48398 | 34890 ft | 463 kts | 88° |
| 2026-05-05 15:46 | -4.39903 | 124.54866 | 34893 ft | 464 kts | 88° |
| 2026-05-05 15:47 | -4.39775 | 124.61338 | 34897 ft | 464 kts | 88° |
| 2026-05-05 15:47 | -4.39647 | 124.67766 | 34892 ft | 465 kts | 88° |
| 2026-05-05 15:48 | -4.39517 | 124.74235 | 34888 ft | 465 kts | 88° |
| 2026-05-05 15:48 | -4.39388 | 124.80704 | 34887 ft | 464 kts | 88° |
| 2026-05-05 15:49 | -4.39257 | 124.87168 | 34889 ft | 464 kts | 88° |
| 2026-05-05 15:49 | -4.39126 | 124.93588 | 34889 ft | 464 kts | 88° |
| 2026-05-05 15:50 | -4.38995 | 125.00057 | 34900 ft | 464 kts | 88° |
| 2026-05-05 15:50 | -4.38863 | 125.06520 | 34896 ft | 463 kts | 88° |
| 2026-05-05 15:51 | -4.38731 | 125.12972 | 34894 ft | 464 kts | 88° |
| 2026-05-05 15:51 | -4.38598 | 125.19428 | 34893 ft | 464 kts | 88° |
| 2026-05-05 15:52 | -4.38465 | 125.25843 | 34889 ft | 464 kts | 88° |
| 2026-05-05 15:52 | -4.38330 | 125.32308 | 34892 ft | 464 kts | 88° |
| 2026-05-05 15:53 | -4.38195 | 125.38777 | 34894 ft | 464 kts | 88° |
| 2026-05-05 15:53 | -4.38060 | 125.45245 | 34887 ft | 464 kts | 88° |
| 2026-05-05 15:54 | -4.37925 | 125.51671 | 34889 ft | 465 kts | 88° |
| 2026-05-05 15:54 | -4.37788 | 125.58148 | 34888 ft | 465 kts | 88° |
| 2026-05-05 15:55 | -4.37651 | 125.64620 | 34887 ft | 465 kts | 88° |
| 2026-05-05 15:55 | -4.37513 | 125.71100 | 34889 ft | 465 kts | 88° |
| 2026-05-05 15:56 | -4.37375 | 125.77535 | 34892 ft | 465 kts | 88° |
| 2026-05-05 15:56 | -4.37236 | 125.84013 | 34895 ft | 465 kts | 88° |
| 2026-05-05 15:57 | -4.37096 | 125.90491 | 34887 ft | 465 kts | 88° |
| 2026-05-05 15:57 | -4.36956 | 125.96966 | 34890 ft | 465 kts | 88° |
| 2026-05-05 15:58 | -4.36817 | 126.03397 | 34888 ft | 465 kts | 88° |
| 2026-05-05 15:58 | -4.36675 | 126.09871 | 34886 ft | 465 kts | 88° |
| 2026-05-05 15:59 | -4.36533 | 126.16352 | 34888 ft | 465 kts | 88° |
| 2026-05-05 15:59 | -4.36391 | 126.22829 | 34890 ft | 465 kts | 88° |
| 2026-05-05 16:00 | -4.36249 | 126.29301 | 34893 ft | 465 kts | 88° |
| 2026-05-05 16:00 | -4.36106 | 126.35725 | 34893 ft | 465 kts | 88° |
| 2026-05-05 16:01 | -4.35962 | 126.42200 | 34890 ft | 465 kts | 88° |
| 2026-05-05 16:01 | -4.35818 | 126.48671 | 34888 ft | 465 kts | 88° |
| 2026-05-05 16:02 | -4.35673 | 126.55148 | 34893 ft | 465 kts | 88° |
| 2026-05-05 16:02 | -4.35527 | 126.61626 | 34894 ft | 465 kts | 88° |
| 2026-05-05 16:03 | -4.35382 | 126.68063 | 34895 ft | 465 kts | 88° |
| 2026-05-05 16:03 | -4.35234 | 126.74541 | 34894 ft | 465 kts | 88° |
| 2026-05-05 16:04 | -4.35086 | 126.81016 | 34892 ft | 465 kts | 88° |
| 2026-05-05 16:04 | -4.34938 | 126.87495 | 34890 ft | 465 kts | 88° |
| 2026-05-05 16:05 | -4.34789 | 126.93973 | 34889 ft | 465 kts | 88° |
| 2026-05-05 16:05 | -4.34641 | 127.00412 | 34892 ft | 465 kts | 88° |
| 2026-05-05 16:06 | -4.34491 | 127.06881 | 34888 ft | 464 kts | 88° |
| 2026-05-05 16:06 | -4.34341 | 127.13345 | 34891 ft | 465 kts | 88° |
| 2026-05-05 16:07 | -4.34190 | 127.19815 | 34890 ft | 465 kts | 88° |
| 2026-05-05 16:07 | -4.34040 | 127.26240 | 34889 ft | 464 kts | 88° |
| 2026-05-05 16:08 | -4.33887 | 127.32694 | 34886 ft | 463 kts | 88° |
| 2026-05-05 16:08 | -4.33735 | 127.39154 | 34891 ft | 464 kts | 88° |
| 2026-05-05 16:09 | -4.33582 | 127.45616 | 34890 ft | 464 kts | 88° |
| 2026-05-05 16:09 | -4.33429 | 127.52071 | 34889 ft | 464 kts | 88° |
| 2026-05-05 16:10 | -4.33277 | 127.58487 | 34890 ft | 464 kts | 88° |
| 2026-05-05 16:10 | -4.33122 | 127.64946 | 34887 ft | 464 kts | 88° |
| 2026-05-05 16:11 | -4.32967 | 127.71405 | 34888 ft | 463 kts | 88° |
| 2026-05-05 16:12 | -4.32657 | 127.84248 | 34893 ft | 462 kts | 88° |
| 2026-05-05 16:13 | -4.32266 | 128.00340 | 34887 ft | 460 kts | 88° |
| 2026-05-05 16:13 | -4.32109 | 128.06757 | 34889 ft | 461 kts | 88° |
| 2026-05-05 16:14 | -4.31795 | 128.19548 | 34881 ft | 461 kts | 88° |
| 2026-05-05 16:15 | -4.31476 | 128.32386 | 34885 ft | 460 kts | 88° |
| 2026-05-05 16:16 | -4.31158 | 128.45177 | 34891 ft | 461 kts | 88° |
| 2026-05-05 16:17 | -4.30916 | 128.54804 | 34888 ft | 461 kts | 88° |
| 2026-05-05 16:18 | -4.30674 | 128.64429 | 34882 ft | 460 kts | 88° |
| 2026-05-05 16:19 | -4.30431 | 128.74016 | 34884 ft | 461 kts | 88° |
| 2026-05-05 16:19 | -4.30186 | 128.83639 | 34884 ft | 461 kts | 88° |
| 2026-05-05 16:20 | -4.29858 | 128.96477 | 34879 ft | 462 kts | 88° |
| 2026-05-05 16:22 | -4.29444 | 129.12512 | 34883 ft | 462 kts | 88° |
| 2026-05-05 16:23 | -4.29110 | 129.25373 | 34883 ft | 461 kts | 88° |
| 2026-05-05 16:23 | -4.28859 | 129.34982 | 34882 ft | 462 kts | 88° |
| 2026-05-05 16:24 | -4.28691 | 129.41403 | 34877 ft | 460 kts | 88° |
| 2026-05-05 16:25 | -4.28437 | 129.51026 | 34882 ft | 461 kts | 88° |
| 2026-05-05 16:25 | -4.28184 | 129.60609 | 34888 ft | 461 kts | 88° |
| 2026-05-05 16:26 | -4.27606 | 129.73409 | 34886 ft | 460 kts | 81° |
| 2026-05-05 16:27 | -4.26654 | 129.79705 | 34878 ft | 461 kts | 81° |
| 2026-05-05 16:27 | -4.25679 | 129.86052 | 34881 ft | 461 kts | 81° |
| 2026-05-05 16:28 | -4.24702 | 129.92395 | 34871 ft | 461 kts | 81° |
| 2026-05-05 16:28 | -4.23724 | 129.98741 | 34877 ft | 461 kts | 81° |
| 2026-05-05 16:29 | -4.22745 | 130.05090 | 34875 ft | 461 kts | 81° |
| 2026-05-05 16:29 | -4.21772 | 130.11395 | 34882 ft | 461 kts | 81° |
| 2026-05-05 16:30 | -4.20791 | 130.17749 | 34883 ft | 461 kts | 81° |
| 2026-05-05 16:30 | -4.19810 | 130.24100 | 34877 ft | 461 kts | 81° |
| 2026-05-05 16:31 | -4.18828 | 130.30452 | 34878 ft | 462 kts | 81° |
| 2026-05-05 16:31 | -4.17851 | 130.36771 | 34876 ft | 462 kts | 81° |
| 2026-05-05 16:32 | -4.16867 | 130.43132 | 34876 ft | 462 kts | 81° |
| 2026-05-05 16:32 | -4.15883 | 130.49489 | 34874 ft | 462 kts | 81° |
| 2026-05-05 16:33 | -4.14897 | 130.55852 | 34868 ft | 462 kts | 81° |
| 2026-05-05 16:33 | -4.13917 | 130.62172 | 34865 ft | 462 kts | 81° |
| 2026-05-05 16:34 | -4.12931 | 130.68534 | 34866 ft | 462 kts | 81° |
| 2026-05-05 16:34 | -4.11943 | 130.74899 | 34868 ft | 462 kts | 81° |
| 2026-05-05 16:35 | -4.10955 | 130.81264 | 34872 ft | 462 kts | 81° |
| 2026-05-05 16:35 | -4.09967 | 130.87629 | 34872 ft | 462 kts | 81° |
| 2026-05-05 16:36 | -4.08977 | 130.93995 | 34886 ft | 463 kts | 81° |
| 2026-05-05 16:36 | -4.07995 | 131.00315 | 34874 ft | 464 kts | 81° |
| 2026-05-05 16:37 | -4.07002 | 131.06699 | 34873 ft | 464 kts | 81° |
| 2026-05-05 16:37 | -4.06009 | 131.13078 | 34872 ft | 463 kts | 81° |
| 2026-05-05 16:38 | -4.05017 | 131.19448 | 34871 ft | 464 kts | 81° |
| 2026-05-05 16:38 | -4.04023 | 131.25826 | 34871 ft | 464 kts | 81° |
| 2026-05-05 16:39 | -4.03035 | 131.32161 | 34866 ft | 464 kts | 81° |
| 2026-05-05 16:39 | -4.02040 | 131.38541 | 34865 ft | 464 kts | 81° |
| 2026-05-05 16:40 | -4.01045 | 131.44919 | 34865 ft | 464 kts | 81° |
| 2026-05-05 16:40 | -4.00050 | 131.51296 | 34862 ft | 464 kts | 81° |
| 2026-05-05 16:41 | -3.99060 | 131.57632 | 34860 ft | 463 kts | 81° |
| 2026-05-05 16:41 | -3.98064 | 131.64004 | 34863 ft | 463 kts | 81° |
| 2026-05-05 16:42 | -3.97067 | 131.70377 | 34862 ft | 463 kts | 81° |
| 2026-05-05 16:42 | -3.96069 | 131.76754 | 34861 ft | 463 kts | 81° |
| 2026-05-05 16:43 | -3.95079 | 131.83083 | 34862 ft | 463 kts | 81° |
| 2026-05-05 16:43 | -3.94081 | 131.89455 | 34862 ft | 463 kts | 81° |
| 2026-05-05 16:44 | -3.93081 | 131.95833 | 34864 ft | 463 kts | 81° |
| 2026-05-05 16:44 | -3.92082 | 132.02207 | 34863 ft | 463 kts | 81° |
| 2026-05-05 16:45 | -3.91089 | 132.08539 | 34864 ft | 463 kts | 81° |
| 2026-05-05 16:45 | -3.90089 | 132.14911 | 34863 ft | 464 kts | 81° |
| 2026-05-05 16:46 | -3.89087 | 132.21288 | 34862 ft | 464 kts | 81° |
| 2026-05-05 16:46 | -3.88084 | 132.27674 | 34862 ft | 464 kts | 81° |
| 2026-05-05 16:47 | -3.87087 | 132.34019 | 34859 ft | 464 kts | 81° |
| 2026-05-05 16:47 | -3.86083 | 132.40405 | 34858 ft | 464 kts | 81° |
| 2026-05-05 16:48 | -3.85078 | 132.46791 | 34859 ft | 464 kts | 81° |
| 2026-05-05 16:48 | -3.84072 | 132.53178 | 34862 ft | 464 kts | 81° |
| 2026-05-05 16:49 | -3.83072 | 132.59528 | 34861 ft | 465 kts | 81° |
| 2026-05-05 16:49 | -3.82066 | 132.65915 | 34869 ft | 464 kts | 81° |
| 2026-05-05 16:50 | -3.81059 | 132.72302 | 34875 ft | 464 kts | 81° |
| 2026-05-05 16:50 | -3.80053 | 132.78681 | 34875 ft | 464 kts | 81° |
| 2026-05-05 16:51 | -3.79046 | 132.85066 | 34876 ft | 464 kts | 81° |
| 2026-05-05 16:51 | -3.78044 | 132.91410 | 34874 ft | 464 kts | 81° |
| 2026-05-05 16:52 | -3.77037 | 132.97788 | 34876 ft | 464 kts | 81° |
| 2026-05-05 16:52 | -3.76028 | 133.04173 | 34877 ft | 464 kts | 81° |
| 2026-05-05 16:53 | -3.75019 | 133.10553 | 34877 ft | 464 kts | 81° |
| 2026-05-05 16:53 | -3.74019 | 133.16876 | 34878 ft | 464 kts | 81° |
| 2026-05-05 16:54 | -3.73008 | 133.23259 | 34875 ft | 464 kts | 81° |
| 2026-05-05 16:54 | -3.71998 | 133.29640 | 34873 ft | 465 kts | 81° |
| 2026-05-05 16:55 | -3.70986 | 133.36029 | 34864 ft | 464 kts | 81° |
| 2026-05-05 16:55 | -3.69981 | 133.42370 | 34864 ft | 464 kts | 81° |
| 2026-05-05 16:56 | -3.68969 | 133.48752 | 34865 ft | 464 kts | 81° |
| 2026-05-05 16:56 | -3.67957 | 133.55131 | 34865 ft | 464 kts | 81° |
| 2026-05-05 16:57 | -3.66945 | 133.61512 | 34865 ft | 464 kts | 81° |
| 2026-05-05 16:57 | -3.65932 | 133.67889 | 34868 ft | 464 kts | 81° |
| 2026-05-05 16:58 | -3.64926 | 133.74218 | 34867 ft | 464 kts | 81° |
| 2026-05-05 16:58 | -3.63912 | 133.80602 | 34871 ft | 464 kts | 81° |
| 2026-05-05 16:59 | -3.62898 | 133.86978 | 34881 ft | 463 kts | 81° |
| 2026-05-05 16:59 | -3.61885 | 133.93346 | 34881 ft | 463 kts | 81° |
| 2026-05-05 17:00 | -3.60879 | 133.99668 | 34891 ft | 463 kts | 81° |
| 2026-05-05 17:00 | -3.59865 | 134.06037 | 34891 ft | 463 kts | 81° |
| 2026-05-05 17:01 | -3.58851 | 134.12401 | 34898 ft | 463 kts | 81° |
| 2026-05-05 17:01 | -3.57836 | 134.18767 | 34894 ft | 463 kts | 81° |
| 2026-05-05 17:02 | -3.56821 | 134.25135 | 34891 ft | 463 kts | 81° |
| 2026-05-05 17:02 | -3.55813 | 134.31455 | 34897 ft | 463 kts | 81° |
| 2026-05-05 17:03 | -3.54798 | 134.37816 | 34892 ft | 463 kts | 81° |
| 2026-05-05 17:03 | -3.53782 | 134.44177 | 34900 ft | 463 kts | 81° |
| 2026-05-05 17:04 | -3.52767 | 134.50531 | 34896 ft | 462 kts | 81° |
| 2026-05-05 17:04 | -3.51760 | 134.56831 | 34894 ft | 462 kts | 81° |
| 2026-05-05 17:05 | -3.50746 | 134.63178 | 34890 ft | 462 kts | 81° |
| 2026-05-05 17:05 | -3.49732 | 134.69516 | 34886 ft | 461 kts | 81° |
| 2026-05-05 17:06 | -3.48718 | 134.75852 | 34888 ft | 461 kts | 81° |
| 2026-05-05 17:06 | -3.47711 | 134.82141 | 34883 ft | 461 kts | 81° |
| 2026-05-05 17:07 | -3.46697 | 134.88472 | 34876 ft | 461 kts | 81° |
| 2026-05-05 17:07 | -3.45682 | 134.94810 | 34879 ft | 461 kts | 81° |
| 2026-05-05 17:08 | -3.44667 | 135.01139 | 34868 ft | 461 kts | 81° |
| 2026-05-05 17:08 | -3.43661 | 135.07417 | 34865 ft | 459 kts | 81° |
| 2026-05-05 17:09 | -3.42648 | 135.13729 | 34864 ft | 459 kts | 81° |
| 2026-05-05 17:09 | -3.41635 | 135.20039 | 34859 ft | 459 kts | 81° |
| 2026-05-05 17:10 | -3.40621 | 135.26357 | 34853 ft | 459 kts | 81° |
| 2026-05-05 17:10 | -3.39614 | 135.32626 | 34854 ft | 459 kts | 81° |
| 2026-05-05 17:11 | -3.38601 | 135.38934 | 34856 ft | 459 kts | 81° |
| 2026-05-05 17:11 | -3.37585 | 135.45250 | 34857 ft | 460 kts | 81° |
| 2026-05-05 17:12 | -3.36584 | 135.51569 | 34851 ft | 460 kts | 81° |
| 2026-05-05 17:12 | -3.35600 | 135.57893 | 34854 ft | 460 kts | 81° |
| 2026-05-05 17:13 | -3.34622 | 135.64169 | 34858 ft | 459 kts | 81° |
| 2026-05-05 17:13 | -3.33637 | 135.70488 | 34864 ft | 459 kts | 81° |
| 2026-05-05 17:14 | -3.32652 | 135.76805 | 34865 ft | 460 kts | 81° |
| 2026-05-05 17:14 | -3.31665 | 135.83126 | 34869 ft | 460 kts | 81° |
| 2026-05-05 17:15 | -3.30687 | 135.89395 | 34873 ft | 460 kts | 81° |
| 2026-05-05 17:15 | -3.29699 | 135.95717 | 34886 ft | 460 kts | 81° |
| 2026-05-05 17:16 | -3.28712 | 136.02034 | 34876 ft | 460 kts | 81° |
| 2026-05-05 17:16 | -3.27723 | 136.08368 | 34878 ft | 461 kts | 81° |
| 2026-05-05 17:17 | -3.26732 | 136.14703 | 34877 ft | 461 kts | 81° |
| 2026-05-05 17:17 | -3.25741 | 136.21038 | 34894 ft | 461 kts | 81° |
| 2026-05-05 17:18 | -3.24757 | 136.27327 | 34908 ft | 461 kts | 81° |
| 2026-05-05 17:18 | -3.23764 | 136.33669 | 34917 ft | 461 kts | 81° |
| 2026-05-05 17:19 | -3.22771 | 136.40005 | 34915 ft | 461 kts | 81° |
| 2026-05-05 17:19 | -3.21779 | 136.46342 | 34918 ft | 461 kts | 81° |
| 2026-05-05 17:20 | -3.20792 | 136.52637 | 34894 ft | 461 kts | 81° |
| 2026-05-05 17:20 | -3.19798 | 136.58972 | 34888 ft | 461 kts | 81° |
| 2026-05-05 17:21 | -3.18802 | 136.65321 | 34893 ft | 462 kts | 81° |
| 2026-05-05 17:22 | -3.17309 | 136.74832 | 34885 ft | 461 kts | 81° |
| 2026-05-05 17:22 | -3.16320 | 136.81134 | 34886 ft | 462 kts | 81° |
| 2026-05-05 17:23 | -3.15322 | 136.87481 | 34882 ft | 462 kts | 81° |
| 2026-05-05 17:23 | -3.14325 | 136.93828 | 34879 ft | 462 kts | 81° |
| 2026-05-05 17:24 | -3.13327 | 137.00177 | 34869 ft | 462 kts | 81° |
| 2026-05-05 17:24 | -3.12328 | 137.06525 | 34868 ft | 462 kts | 81° |
| 2026-05-05 17:25 | -3.11336 | 137.12829 | 34868 ft | 462 kts | 81° |
| 2026-05-05 17:25 | -3.10336 | 137.19179 | 34862 ft | 462 kts | 81° |
| 2026-05-05 17:26 | -3.09337 | 137.25527 | 34859 ft | 462 kts | 81° |
| 2026-05-05 17:26 | -3.08337 | 137.31872 | 34863 ft | 462 kts | 81° |
| 2026-05-05 17:27 | -3.07339 | 137.38202 | 34862 ft | 460 kts | 81° |
| 2026-05-05 17:27 | -3.06349 | 137.44478 | 34863 ft | 461 kts | 81° |
| 2026-05-05 17:28 | -3.05351 | 137.50810 | 34862 ft | 461 kts | 81° |
| 2026-05-05 17:28 | -3.04352 | 137.57136 | 34860 ft | 461 kts | 81° |
| 2026-05-05 17:29 | -3.03352 | 137.63471 | 34864 ft | 461 kts | 81° |
| 2026-05-05 17:29 | -3.02521 | 137.68738 | 34859 ft | 461 kts | 81° |
| 2026-05-05 17:30 | -3.01357 | 137.76102 | 34856 ft | 461 kts | 81° |
| 2026-05-05 17:30 | -3.00356 | 137.82438 | 34857 ft | 461 kts | 81° |
| 2026-05-05 17:31 | -2.99353 | 137.88784 | 34857 ft | 462 kts | 81° |
| 2026-05-05 17:31 | -2.98348 | 137.95134 | 34856 ft | 462 kts | 81° |
| 2026-05-05 17:32 | -2.97351 | 138.01440 | 34859 ft | 462 kts | 81° |
| 2026-05-05 17:32 | -2.96345 | 138.07793 | 34851 ft | 463 kts | 81° |
| 2026-05-05 17:33 | -2.95338 | 138.14153 | 34856 ft | 463 kts | 81° |
| 2026-05-05 17:33 | -2.94501 | 138.19434 | 34856 ft | 463 kts | 81° |
| 2026-05-05 17:34 | -2.93494 | 138.25792 | 34858 ft | 462 kts | 81° |
| 2026-05-05 17:34 | -2.92326 | 138.33161 | 34856 ft | 461 kts | 81° |
| 2026-05-05 17:35 | -2.91483 | 138.38472 | 34857 ft | 461 kts | 81° |
| 2026-05-05 17:35 | -2.90484 | 138.44769 | 34859 ft | 461 kts | 81° |
| 2026-05-05 17:36 | -2.89479 | 138.51106 | 34861 ft | 461 kts | 81° |
| 2026-05-05 17:36 | -2.89356 | 138.57463 | 34865 ft | 460 kts | 102° |
| 2026-05-05 17:37 | -2.90864 | 138.63705 | 34851 ft | 462 kts | 103° |
| 2026-05-05 17:37 | -2.92412 | 138.69902 | 34862 ft | 462 kts | 103° |
| 2026-05-05 17:38 | -2.93975 | 138.76143 | 34863 ft | 462 kts | 103° |
| 2026-05-05 17:38 | -2.95529 | 138.82328 | 34083 ft | 458 kts | 103° |
| 2026-05-05 17:38 | -2.96312 | 138.85415 | 33498 ft | 456 kts | 103° |
| 2026-05-05 17:39 | -2.97094 | 138.88503 | 33079 ft | 459 kts | 103° |
| 2026-05-05 17:39 | -2.97874 | 138.91606 | 32633 ft | 461 kts | 103° |
| 2026-05-05 17:39 | -2.98646 | 138.94680 | 32205 ft | 463 kts | 103° |
| 2026-05-05 17:39 | -2.99430 | 138.97807 | 31782 ft | 464 kts | 103° |
| 2026-05-05 17:40 | -3.00213 | 139.00943 | 31356 ft | 466 kts | 103° |
| 2026-05-05 17:40 | -3.00998 | 139.04091 | 30940 ft | 467 kts | 103° |
| 2026-05-05 17:40 | -3.01783 | 139.07249 | 30530 ft | 469 kts | 103° |
| 2026-05-05 17:40 | -3.02570 | 139.10417 | 30124 ft | 470 kts | 103° |
| 2026-05-05 17:41 | -3.03366 | 139.13597 | 29666 ft | 471 kts | 103° |
| 2026-05-05 17:41 | -3.04162 | 139.16781 | 29171 ft | 473 kts | 103° |
| 2026-05-05 17:41 | -3.04959 | 139.19977 | 28683 ft | 474 kts | 103° |
| 2026-05-05 17:41 | -3.05755 | 139.23178 | 28204 ft | 475 kts | 103° |
| 2026-05-05 17:42 | -3.06543 | 139.26349 | 27732 ft | 476 kts | 103° |
| 2026-05-05 17:42 | -3.07341 | 139.29567 | 27264 ft | 478 kts | 103° |
| 2026-05-05 17:42 | -3.08142 | 139.32800 | 26805 ft | 479 kts | 103° |
| 2026-05-05 17:42 | -3.08941 | 139.36037 | 26345 ft | 480 kts | 103° |
| 2026-05-05 17:43 | -3.09743 | 139.39288 | 25899 ft | 482 kts | 103° |
| 2026-05-05 17:43 | -3.10544 | 139.42545 | 25455 ft | 483 kts | 103° |
| 2026-05-05 17:43 | -3.11347 | 139.45814 | 25024 ft | 485 kts | 103° |
| 2026-05-05 17:43 | -3.12149 | 139.49086 | 24554 ft | 483 kts | 103° |
| 2026-05-05 17:44 | -3.12935 | 139.52297 | 24033 ft | 480 kts | 103° |
| 2026-05-05 17:44 | -3.13724 | 139.55531 | 23520 ft | 477 kts | 103° |
| 2026-05-05 17:44 | -3.14503 | 139.58733 | 22926 ft | 470 kts | 103° |
| 2026-05-05 17:44 | -3.15261 | 139.61844 | 22325 ft | 450 kts | 103° |
| 2026-05-05 17:45 | -3.15989 | 139.64823 | 21757 ft | 432 kts | 103° |
| 2026-05-05 17:45 | -3.16690 | 139.67687 | 21192 ft | 417 kts | 103° |
| 2026-05-05 17:45 | -3.17370 | 139.70459 | 20639 ft | 404 kts | 104° |
| 2026-05-05 17:45 | -3.18032 | 139.73154 | 20044 ft | 394 kts | 103° |
| 2026-05-05 17:46 | -3.18679 | 139.75782 | 19452 ft | 385 kts | 104° |
| 2026-05-05 17:46 | -3.19316 | 139.78361 | 18873 ft | 378 kts | 103° |
| 2026-05-05 17:46 | -3.19932 | 139.80853 | 18313 ft | 371 kts | 104° |
| 2026-05-05 17:46 | -3.20550 | 139.83338 | 17682 ft | 365 kts | 104° |
| 2026-05-05 17:47 | -3.21155 | 139.85788 | 17093 ft | 359 kts | 104° |
| 2026-05-05 17:47 | -3.21747 | 139.88190 | 16514 ft | 353 kts | 103° |
| 2026-05-05 17:47 | -3.22335 | 139.90570 | 15973 ft | 351 kts | 104° |
| 2026-05-05 17:47 | -3.22921 | 139.92938 | 15427 ft | 349 kts | 103° |
| 2026-05-05 17:48 | -3.23220 | 139.95319 | 14878 ft | 345 kts | 86° |
| 2026-05-05 17:48 | -3.22738 | 139.97650 | 14364 ft | 341 kts | 72° |
| 2026-05-05 17:48 | -3.22026 | 139.99872 | 13858 ft | 339 kts | 72° |
| 2026-05-05 17:48 | -3.21296 | 140.02104 | 13298 ft | 336 kts | 72° |
| 2026-05-05 17:49 | -3.20567 | 140.04320 | 12739 ft | 334 kts | 72° |
| 2026-05-05 17:49 | -3.19809 | 140.06508 | 12169 ft | 332 kts | 67° |
| 2026-05-05 17:49 | -3.18666 | 140.08486 | 11725 ft | 327 kts | 52° |
| 2026-05-05 17:49 | -3.17256 | 140.10282 | 11635 ft | 335 kts | 52° |
| 2026-05-05 17:50 | -3.15804 | 140.12173 | 11552 ft | 347 kts | 53° |
| 2026-05-05 17:50 | -3.14330 | 140.14110 | 11460 ft | 352 kts | 53° |
| 2026-05-05 17:50 | -3.12866 | 140.16043 | 11378 ft | 354 kts | 53° |
| 2026-05-05 17:50 | -3.11363 | 140.18030 | 11289 ft | 354 kts | 53° |
| 2026-05-05 17:51 | -3.09900 | 140.19966 | 11204 ft | 353 kts | 53° |
| 2026-05-05 17:51 | -3.08422 | 140.21922 | 11107 ft | 350 kts | 53° |
| 2026-05-05 17:51 | -3.06984 | 140.23824 | 11048 ft | 337 kts | 53° |
| 2026-05-05 17:51 | -3.05592 | 140.25665 | 10896 ft | 327 kts | 53° |
| 2026-05-05 17:52 | -3.04241 | 140.27452 | 10730 ft | 318 kts | 53° |
| 2026-05-05 17:52 | -3.02924 | 140.29194 | 10573 ft | 309 kts | 53° |
| 2026-05-05 17:52 | -3.01644 | 140.30888 | 10428 ft | 301 kts | 53° |
| 2026-05-05 17:52 | -3.00398 | 140.32537 | 10285 ft | 293 kts | 53° |
| 2026-05-05 17:53 | -2.99204 | 140.34116 | 10149 ft | 285 kts | 53° |
| 2026-05-05 17:53 | -2.98023 | 140.35678 | 9972 ft | 279 kts | 53° |
| 2026-05-05 17:53 | -2.96856 | 140.37222 | 9686 ft | 278 kts | 53° |
| 2026-05-05 17:53 | -2.95692 | 140.38762 | 9348 ft | 277 kts | 53° |
| 2026-05-05 17:54 | -2.94532 | 140.40298 | 9029 ft | 276 kts | 53° |
| 2026-05-05 17:54 | -2.93376 | 140.41827 | 8736 ft | 275 kts | 53° |
| 2026-05-05 17:54 | -2.92226 | 140.43349 | 8401 ft | 275 kts | 53° |
| 2026-05-05 17:54 | -2.91072 | 140.44877 | 8087 ft | 275 kts | 53° |
| 2026-05-05 17:55 | -2.89934 | 140.46383 | 7784 ft | 275 kts | 53° |
| 2026-05-05 17:55 | -2.88779 | 140.47912 | 7474 ft | 275 kts | 53° |
| 2026-05-05 17:55 | -2.87625 | 140.49437 | 7171 ft | 274 kts | 53° |
| 2026-05-05 17:55 | -2.86491 | 140.50937 | 6847 ft | 266 kts | 53° |
| 2026-05-05 17:56 | -2.85391 | 140.52392 | 6534 ft | 259 kts | 53° |
| 2026-05-05 17:56 | -2.84321 | 140.53808 | 6227 ft | 252 kts | 53° |
| 2026-05-05 17:56 | -2.83278 | 140.55188 | 5897 ft | 245 kts | 53° |
| 2026-05-05 17:56 | -2.82260 | 140.56534 | 5581 ft | 240 kts | 53° |
| 2026-05-05 17:57 | -2.81267 | 140.57847 | 5301 ft | 233 kts | 53° |
| 2026-05-05 17:57 | -2.80322 | 140.59097 | 5036 ft | 222 kts | 53° |
| 2026-05-05 17:57 | -2.79409 | 140.60305 | 4724 ft | 213 kts | 53° |
| 2026-05-05 17:57 | -2.78530 | 140.61468 | 4408 ft | 206 kts | 53° |
| 2026-05-05 17:58 | -2.77680 | 140.62592 | 4116 ft | 198 kts | 53° |
| 2026-05-05 17:58 | -2.76873 | 140.63658 | 3976 ft | 188 kts | 53° |
| 2026-05-05 17:58 | -2.76081 | 140.64708 | 4002 ft | 192 kts | 53° |
| 2026-05-05 17:58 | -2.75268 | 140.65784 | 4028 ft | 195 kts | 53° |
| 2026-05-05 17:59 | -2.74448 | 140.66866 | 4003 ft | 195 kts | 54° |
| 2026-05-05 17:59 | -2.73627 | 140.67945 | 3785 ft | 194 kts | 51° |
| 2026-05-05 17:59 | -2.72545 | 140.68690 | 3476 ft | 194 kts | 17° |
| 2026-05-05 17:59 | -2.71213 | 140.68701 | 3189 ft | 194 kts | 343° |
| 2026-05-05 18:00 | -2.70098 | 140.67971 | 3039 ft | 194 kts | 315° |
| 2026-05-05 18:00 | -2.69209 | 140.66949 | 3037 ft | 196 kts | 310° |
| 2026-05-05 18:00 | -2.68359 | 140.65881 | 3025 ft | 196 kts | 308° |
| 2026-05-05 18:00 | -2.67528 | 140.64795 | 3004 ft | 198 kts | 307° |
| 2026-05-05 18:01 | -2.66711 | 140.63709 | 2761 ft | 190 kts | 307° |
| 2026-05-05 18:01 | -2.65935 | 140.62675 | 2541 ft | 181 kts | 307° |
| 2026-05-05 18:01 | -2.65202 | 140.61695 | 2342 ft | 177 kts | 307° |
| 2026-05-05 18:01 | -2.64467 | 140.60712 | 2129 ft | 172 kts | 307° |
| 2026-05-05 18:02 | -2.63788 | 140.59803 | 1955 ft | 157 kts | 307° |
| 2026-05-05 18:02 | -2.63142 | 140.58938 | 1739 ft | 154 kts | 307° |
| 2026-05-05 18:02 | -2.62506 | 140.58086 | 1541 ft | 152 kts | 307° |
| 2026-05-05 18:02 | -2.61874 | 140.57240 | 1343 ft | 151 kts | 307° |
| 2026-05-05 18:03 | -2.61249 | 140.56402 | 1155 ft | 150 kts | 306° |
| 2026-05-05 18:03 | -2.60634 | 140.55566 | 961 ft | 149 kts | 306° |
| 2026-05-05 18:03 | -2.60016 | 140.54739 | 771 ft | 148 kts | 307° |
| 2026-05-05 18:03 | -2.59408 | 140.53930 | 578 ft | 148 kts | 306° |
| 2026-05-05 18:04 | -2.58787 | 140.53105 | 352 ft | 150 kts | 307° |
| 2026-05-05 18:04 | -2.58213 | 140.52337 | 299 ft | 119 kts | 307° |
| 2026-05-05 18:04 | -2.57846 | 140.51846 | 303 ft | 72 kts | 307° |
| 2026-05-05 18:04 | -2.57656 | 140.51590 | 302 ft | 20 kts | 307° |
| 2026-05-05 18:05 | -2.57582 | 140.51546 | 304 ft | 11 kts | 24° |
| 2026-05-05 18:05 | -2.57516 | 140.51596 | 301 ft | 13 kts | 39° |
| 2026-05-05 18:05 | -2.57466 | 140.51603 | 300 ft | 5 kts | 316° |
| 2026-05-05 18:05 | -2.57440 | 140.51566 | 300 ft | 9 kts | 306° |
| 2026-05-05 18:06 | -2.57403 | 140.51516 | 300 ft | 3 kts | 309° |
| 2026-05-05 18:06 | -2.57393 | 140.51503 | 304 ft | 3 kts | 307° |
| 2026-05-05 18:06 | -2.57389 | 140.51498 | 303 ft | 0 kts | 307° |
| 2026-05-05 18:06 | -2.57376 | 140.51481 | 303 ft | 7 kts | 307° |
| 2026-05-05 18:07 | -2.57330 | 140.51419 | 302 ft | 16 kts | 307° |
| 2026-05-05 18:07 | -2.57251 | 140.51313 | 301 ft | 20 kts | 306° |
| 2026-05-05 18:07 | -2.57203 | 140.51248 | 303 ft | 6 kts | 306° |
| 2026-05-05 18:07 | -2.57172 | 140.51243 | 303 ft | 5 kts | 28° |
| 2026-05-05 18:08 | -2.57138 | 140.51268 | 301 ft | 5 kts | 36° |
| 2026-05-05 18:08 | -2.57126 | 140.51276 | 304 ft | 0 kts | 36° |
| 2026-05-05 18:22 | -2.68155 | 140.65617 | 3017 ft | 196 kts | 308° |
| 2026-05-05 18:22 | -2.61741 | 140.57062 | 1307 ft | 156 kts | 306° |
| 2026-05-05 18:23 | -2.59157 | 140.53595 | 483 ft | 150 kts | 307° |
| 2026-05-05 18:23 | -2.58399 | 140.52588 | 300 ft | 135 kts | 306° |
| 2026-05-05 18:24 | -2.57856 | 140.51859 | 303 ft | 72 kts | 307° |
| 2026-05-05 18:24 | -2.59102 | 140.53523 | 467 ft | 149 kts | 307° |
| 2026-05-05 18:24 | -2.58583 | 140.52832 | 311 ft | 143 kts | 307° |
| 2026-05-05 18:24 | -2.58874 | 140.53221 | 383 ft | 149 kts | 307° |
| 2026-05-05 18:25 | -2.58998 | 140.53385 | 430 ft | 149 kts | 307° |
| 2026-05-05 18:25 | -2.58910 | 140.53269 | 395 ft | 151 kts | 307° |
| 2026-05-05 18:25 | -2.58787 | 140.53105 | 352 ft | 150 kts | 307° |
| 2026-05-05 18:26 | -2.59030 | 140.53428 | 431 ft | 150 kts | 307° |
| 2026-05-05 18:26 | -2.58263 | 140.52403 | 300 ft | 124 kts | 307° |
| 2026-05-05 18:27 | -2.58768 | 140.53079 | 346 ft | 154 kts | 307° |
| 2026-05-05 18:27 | -2.58364 | 140.52541 | 300 ft | 133 kts | 306° |
| 2026-05-05 18:27 | -2.58481 | 140.52697 | 306 ft | 138 kts | 307° |
| 2026-05-05 18:27 | -2.58816 | 140.53144 | 370 ft | 150 kts | 307° |
| 2026-05-05 18:28 | -2.58118 | 140.52209 | 303 ft | 105 kts | 307° |